sensor_id;sensor_type;location;lat;lon;timestamp;pressure;altitude;pressure_sealevel;temperature;humidity
16461;BME280;8341;42.048;24.650;2023-06-26T00:00:07;96832.75;;;22.63;91.57
16461;BME280;8341;42.048;24.650;2023-06-26T00:02:36;96837.19;;;22.66;91.42
16461;BME280;8341;42.048;24.650;2023-06-26T00:05:04;96842.41;;;22.62;91.99
16461;BME280;8341;42.048;24.650;2023-06-26T00:07:31;96828.69;;;22.64;90.82
16461;BME280;8341;42.048;24.650;2023-06-26T00:10:00;96842.94;;;22.68;90.98
16461;BME280;8341;42.048;24.650;2023-06-26T00:12:28;96846.09;;;22.65;90.60
16461;BME280;8341;42.048;24.650;2023-06-26T00:14:55;96840.16;;;22.68;89.69
16461;BME280;8341;42.048;24.650;2023-06-26T00:17:22;96830.34;;;22.67;90.49
16461;BME280;8341;42.048;24.650;2023-06-26T00:19:49;96827.38;;;22.65;90.79
16461;BME280;8341;42.048;24.650;2023-06-26T00:22:17;96832.38;;;22.59;91.22
16461;BME280;8341;42.048;24.650;2023-06-26T00:24:44;96830.16;;;22.65;90.53
16461;BME280;8341;42.048;24.650;2023-06-26T00:27:12;96829.63;;;22.59;91.30
16461;BME280;8341;42.048;24.650;2023-06-26T00:29:39;96839.81;;;22.64;90.33
16461;BME280;8341;42.048;24.650;2023-06-26T00:32:06;96841.09;;;22.63;90.75
16461;BME280;8341;42.048;24.650;2023-06-26T00:34:33;96841.28;;;22.65;91.28
16461;BME280;8341;42.048;24.650;2023-06-26T00:37:00;96837.19;;;22.66;90.82
16461;BME280;8341;42.048;24.650;2023-06-26T00:39:27;96839.38;;;22.75;90.31
16461;BME280;8341;42.048;24.650;2023-06-26T00:41:53;96840.16;;;22.68;90.06
16461;BME280;8341;42.048;24.650;2023-06-26T00:44:22;96841.47;;;22.67;91.49
16461;BME280;8341;42.048;24.650;2023-06-26T00:46:49;96839.00;;;22.79;89.45
16461;BME280;8341;42.048;24.650;2023-06-26T00:49:16;96841.22;;;22.73;89.97
16461;BME280;8341;42.048;24.650;2023-06-26T00:51:43;96847.16;;;22.77;89.68
16461;BME280;8341;42.048;24.650;2023-06-26T00:54:10;96839.38;;;22.75;89.32
16461;BME280;8341;42.048;24.650;2023-06-26T00:56:37;96834.75;;;22.70;89.88
16461;BME280;8341;42.048;24.650;2023-06-26T00:59:04;96837.50;;;22.78;88.82
16461;BME280;8341;42.048;24.650;2023-06-26T01:01:32;96837.88;;;22.82;88.61
16461;BME280;8341;42.048;24.650;2023-06-26T01:03:59;96839.72;;;22.79;88.85
16461;BME280;8341;42.048;24.650;2023-06-26T01:06:27;96836.19;;;22.79;88.55
16461;BME280;8341;42.048;24.650;2023-06-26T01:08:57;96833.78;;;22.83;88.43
16461;BME280;8341;42.048;24.650;2023-06-26T01:11:24;96831.75;;;22.76;88.42
16461;BME280;8341;42.048;24.650;2023-06-26T01:13:51;96832.69;;;22.78;89.21
16461;BME280;8341;42.048;24.650;2023-06-26T01:16:20;96835.47;;;22.78;88.74
16461;BME280;8341;42.048;24.650;2023-06-26T01:18:48;96831.03;;;22.75;89.04
16461;BME280;8341;42.048;24.650;2023-06-26T01:21:15;96837.03;;;22.64;89.09
16461;BME280;8341;42.048;24.650;2023-06-26T01:23:53;96837.53;;;22.70;88.95
16461;BME280;8341;42.048;24.650;2023-06-26T01:26:27;96825.75;;;22.62;88.73
16461;BME280;8341;42.048;24.650;2023-06-26T01:28:57;96839.41;;;22.60;89.67
16461;BME280;8341;42.048;24.650;2023-06-26T01:31:26;96828.34;;;22.53;89.38
16461;BME280;8341;42.048;24.650;2023-06-26T01:33:53;96834.69;;;22.38;90.35
16461;BME280;8341;42.048;24.650;2023-06-26T01:36:21;96831.53;;;22.41;90.58
16461;BME280;8341;42.048;24.650;2023-06-26T01:38:48;96825.28;;;22.33;91.46
16461;BME280;8341;42.048;24.650;2023-06-26T01:41:17;96825.09;;;22.31;91.19
16461;BME280;8341;42.048;24.650;2023-06-26T01:44:01;96816.19;;;22.33;90.81
16461;BME280;8341;42.048;24.650;2023-06-26T01:46:36;96820.25;;;22.32;90.76
16461;BME280;8341;42.048;24.650;2023-06-26T01:49:08;96828.44;;;22.30;91.85
16461;BME280;8341;42.048;24.650;2023-06-26T01:51:41;96820.66;;;22.28;91.94
16461;BME280;8341;42.048;24.650;2023-06-26T01:54:10;96822.16;;;22.22;92.15
16461;BME280;8341;42.048;24.650;2023-06-26T01:56:40;96820.69;;;22.21;92.25
16461;BME280;8341;42.048;24.650;2023-06-26T01:59:09;96823.25;;;22.26;91.92
16461;BME280;8341;42.048;24.650;2023-06-26T02:01:36;96819.19;;;22.20;92.29
16461;BME280;8341;42.048;24.650;2023-06-26T02:04:03;96821.41;;;22.21;92.81
16461;BME280;8341;42.048;24.650;2023-06-26T02:06:30;96818.09;;;22.15;93.28
16461;BME280;8341;42.048;24.650;2023-06-26T02:08:57;96794.44;;;21.99;92.97
16461;BME280;8341;42.048;24.650;2023-06-26T02:11:23;96812.16;;;22.19;93.35
16461;BME280;8341;42.048;24.650;2023-06-26T02:13:50;96816.59;;;22.22;93.04
16461;BME280;8341;42.048;24.650;2023-06-26T02:16:18;96805.34;;;22.12;93.06
16461;BME280;8341;42.048;24.650;2023-06-26T02:18:45;96814.75;;;22.17;92.69
16461;BME280;8341;42.048;24.650;2023-06-26T02:21:13;96811.25;;;22.16;92.58
16461;BME280;8341;42.048;24.650;2023-06-26T02:23:39;96807.38;;;22.12;94.02
16461;BME280;8341;42.048;24.650;2023-06-26T02:26:06;96817.34;;;22.22;92.43
16461;BME280;8341;42.048;24.650;2023-06-26T02:28:33;96825.50;;;22.20;92.41
16461;BME280;8341;42.048;24.650;2023-06-26T02:31:00;96814.94;;;22.19;92.29
16461;BME280;8341;42.048;24.650;2023-06-26T02:33:28;96823.81;;;22.25;92.42
16461;BME280;8341;42.048;24.650;2023-06-26T02:35:55;96808.66;;;22.18;92.28
16461;BME280;8341;42.048;24.650;2023-06-26T02:38:22;96813.28;;;22.23;92.87
16461;BME280;8341;42.048;24.650;2023-06-26T02:40:49;96817.91;;;22.21;92.05
16461;BME280;8341;42.048;24.650;2023-06-26T02:43:16;96809.38;;;22.19;91.49
16461;BME280;8341;42.048;24.650;2023-06-26T02:45:43;96819.16;;;22.27;92.49
16461;BME280;8341;42.048;24.650;2023-06-26T02:48:09;96809.59;;;22.21;92.57
16461;BME280;8341;42.048;24.650;2023-06-26T02:50:37;96813.66;;;22.20;93.15
16461;BME280;8341;42.048;24.650;2023-06-26T02:53:04;96819.00;;;22.25;92.58
16461;BME280;8341;42.048;24.650;2023-06-26T02:55:31;96826.97;;;22.29;92.14
16461;BME280;8341;42.048;24.650;2023-06-26T02:57:58;96820.84;;;22.30;91.99
16461;BME280;8341;42.048;24.650;2023-06-26T03:00:25;96822.31;;;22.31;92.08
16461;BME280;8341;42.048;24.650;2023-06-26T03:02:52;96828.44;;;22.30;91.81
16461;BME280;8341;42.048;24.650;2023-06-26T03:05:18;96824.19;;;22.29;92.48
16461;BME280;8341;42.048;24.650;2023-06-26T03:07:46;96825.66;;;22.30;92.01
16461;BME280;8341;42.048;24.650;2023-06-26T03:10:13;96828.44;;;22.30;91.80
16461;BME280;8341;42.048;24.650;2023-06-26T03:12:40;96828.59;;;22.32;90.97
16461;BME280;8341;42.048;24.650;2023-06-26T03:15:07;96828.59;;;22.32;91.48
16461;BME280;8341;42.048;24.650;2023-06-26T03:17:36;96833.00;;;22.42;91.06
16461;BME280;8341;42.048;24.650;2023-06-26T03:20:03;96829.84;;;22.46;90.52
16461;BME280;8341;42.048;24.650;2023-06-26T03:22:32;96839.84;;;22.49;90.75
16461;BME280;8341;42.048;24.650;2023-06-26T03:25:01;96832.47;;;22.44;90.46
16461;BME280;8341;42.048;24.650;2023-06-26T03:27:28;96832.97;;;22.50;90.15
16461;BME280;8341;42.048;24.650;2023-06-26T03:29:55;96841.31;;;22.50;89.96
16461;BME280;8341;42.048;24.650;2023-06-26T03:32:22;96837.94;;;22.59;90.06
16461;BME280;8341;42.048;24.650;2023-06-26T03:34:48;96845.56;;;22.51;91.27
16461;BME280;8341;42.048;24.650;2023-06-26T03:37:15;96843.34;;;22.50;91.59
16461;BME280;8341;42.048;24.650;2023-06-26T03:39:42;96841.66;;;22.62;90.33
16461;BME280;8341;42.048;24.650;2023-06-26T03:42:10;96850.53;;;22.60;90.67
16461;BME280;8341;42.048;24.650;2023-06-26T03:44:37;96849.25;;;22.61;90.09
16461;BME280;8341;42.048;24.650;2023-06-26T03:47:04;96853.72;;;22.64;90.15
16461;BME280;8341;42.048;24.650;2023-06-26T03:49:31;96843.88;;;22.63;90.50
16461;BME280;8341;42.048;24.650;2023-06-26T03:51:58;96841.66;;;22.62;90.27
16461;BME280;8341;42.048;24.650;2023-06-26T03:54:25;96844.97;;;22.60;91.16
16461;BME280;8341;42.048;24.650;2023-06-26T03:56:51;96841.28;;;22.65;90.70
16461;BME280;8341;42.048;24.650;2023-06-26T03:59:19;96847.56;;;22.58;91.19
16461;BME280;8341;42.048;24.650;2023-06-26T04:01:46;96849.28;;;22.54;91.77
16461;BME280;8341;42.048;24.650;2023-06-26T04:04:13;96849.25;;;22.61;91.01
16461;BME280;8341;42.048;24.650;2023-06-26T04:06:40;96847.56;;;22.66;90.89
16461;BME280;8341;42.048;24.650;2023-06-26T04:09:07;96829.19;;;22.70;90.79
16461;BME280;8341;42.048;24.650;2023-06-26T04:11:33;96838.50;;;22.65;90.70
16461;BME280;8341;42.048;24.650;2023-06-26T04:14:00;96839.03;;;22.71;90.55
16461;BME280;8341;42.048;24.650;2023-06-26T04:16:29;96839.16;;;22.81;89.93
16461;BME280;8341;42.048;24.650;2023-06-26T04:18:56;96836.88;;;22.94;88.68
16461;BME280;8341;42.048;24.650;2023-06-26T04:21:23;96841.38;;;22.82;87.82
16461;BME280;8341;42.048;24.650;2023-06-26T04:23:50;96833.00;;;22.90;87.72
16461;BME280;8341;42.048;24.650;2023-06-26T04:26:17;96844.13;;;22.90;87.92
16461;BME280;8341;42.048;24.650;2023-06-26T04:28:44;96841.19;;;22.80;88.23
16461;BME280;8341;42.048;24.650;2023-06-26T04:31:11;96833.28;;;22.69;89.44
16461;BME280;8341;42.048;24.650;2023-06-26T04:33:39;96831.81;;;22.68;89.68
16461;BME280;8341;42.048;24.650;2023-06-26T04:36:06;96830.84;;;22.73;89.28
16461;BME280;8341;42.048;24.650;2023-06-26T04:38:33;96829.91;;;22.78;88.97
16461;BME280;8341;42.048;24.650;2023-06-26T04:41:00;96829.19;;;22.70;89.60
16461;BME280;8341;42.048;24.650;2023-06-26T04:43:27;96832.28;;;23.14;86.27
16461;BME280;8341;42.048;24.650;2023-06-26T04:45:54;96838.63;;;24.23;79.00
16461;BME280;8341;42.048;24.650;2023-06-26T04:48:21;96843.97;;;25.16;73.53
16461;BME280;8341;42.048;24.650;2023-06-26T04:50:49;96852.75;;;25.85;69.21
16461;BME280;8341;42.048;24.650;2023-06-26T04:53:19;96851.25;;;25.75;70.07
16461;BME280;8341;42.048;24.650;2023-06-26T04:55:47;96849.94;;;24.86;73.23
16461;BME280;8341;42.048;24.650;2023-06-26T04:58:13;96852.44;;;24.48;75.28
16461;BME280;8341;42.048;24.650;2023-06-26T05:00:40;96851.06;;;24.22;77.13
16461;BME280;8341;42.048;24.650;2023-06-26T05:03:09;96863.75;;;23.74;78.87
16461;BME280;8341;42.048;24.650;2023-06-26T05:05:36;96860.44;;;23.50;80.34
16461;BME280;8341;42.048;24.650;2023-06-26T05:08:15;96860.84;;;23.47;80.75
16461;BME280;8341;42.048;24.650;2023-06-26T05:10:42;96860.50;;;23.43;80.73
16461;BME280;8341;42.048;24.650;2023-06-26T05:13:09;96870.31;;;23.44;81.61
16461;BME280;8341;42.048;24.650;2023-06-26T05:15:36;96873.91;;;23.61;81.27
16461;BME280;8341;42.048;24.650;2023-06-26T05:18:03;96880.38;;;23.64;79.77
16461;BME280;8341;42.048;24.650;2023-06-26T05:20:31;96875.94;;;23.61;79.92
16461;BME280;8341;42.048;24.650;2023-06-26T05:22:58;96878.84;;;23.46;80.30
16461;BME280;8341;42.048;24.650;2023-06-26T05:25:26;96877.88;;;23.51;79.85
16461;BME280;8341;42.048;24.650;2023-06-26T05:27:55;96881.50;;;23.61;79.69
16461;BME280;8341;42.048;24.650;2023-06-26T05:30:23;96887.44;;;23.65;78.02
16461;BME280;8341;42.048;24.650;2023-06-26T05:32:51;96892.41;;;23.66;78.60
16461;BME280;8341;42.048;24.650;2023-06-26T05:35:20;96891.91;;;23.60;79.25
16461;BME280;8341;42.048;24.650;2023-06-26T05:37:48;96893.31;;;23.69;78.66
16461;BME280;8341;42.048;24.650;2023-06-26T05:40:17;96894.16;;;23.79;78.99
16461;BME280;8341;42.048;24.650;2023-06-26T05:42:47;96903.59;;;23.84;78.68
16461;BME280;8341;42.048;24.650;2023-06-26T05:45:14;96893.34;;;23.86;78.23
16461;BME280;8341;42.048;24.650;2023-06-26T05:47:41;96891.66;;;23.91;77.29
16461;BME280;8341;42.048;24.650;2023-06-26T05:50:09;96889.88;;;24.03;76.84
16461;BME280;8341;42.048;24.650;2023-06-26T05:52:37;96899.13;;;24.05;76.56
16461;BME280;8341;42.048;24.650;2023-06-26T05:55:05;96892.22;;;24.06;76.80
16461;BME280;8341;42.048;24.650;2023-06-26T05:57:32;96888.03;;;24.22;76.28
16461;BME280;8341;42.048;24.650;2023-06-26T06:00:02;96890.19;;;24.32;75.57
16461;BME280;8341;42.048;24.650;2023-06-26T06:02:36;96880.56;;;24.25;74.55
16461;BME280;8341;42.048;24.650;2023-06-26T06:05:03;96882.81;;;24.26;75.27
16461;BME280;8341;42.048;24.650;2023-06-26T06:07:31;96877.84;;;24.35;74.67
16461;BME280;8341;42.048;24.650;2023-06-26T06:09:57;96881.22;;;24.33;73.97
16461;BME280;8341;42.048;24.650;2023-06-26T06:12:24;96878.94;;;24.56;74.53
16461;BME280;8341;42.048;24.650;2023-06-26T06:14:51;96885.25;;;24.57;73.27
16461;BME280;8341;42.048;24.650;2023-06-26T06:17:19;96880.47;;;24.67;73.47
16461;BME280;8341;42.048;24.650;2023-06-26T06:19:46;96887.84;;;24.72;73.78
16461;BME280;8341;42.048;24.650;2023-06-26T06:22:13;96883.91;;;24.75;74.06
16461;BME280;8341;42.048;24.650;2023-06-26T06:24:40;96880.22;;;24.72;73.46
16461;BME280;8341;42.048;24.650;2023-06-26T06:27:06;96887.84;;;24.72;72.68
16461;BME280;8341;42.048;24.650;2023-06-26T06:29:33;96889.50;;;24.75;73.45
16461;BME280;8341;42.048;24.650;2023-06-26T06:32:00;96890.81;;;24.57;73.57
16461;BME280;8341;42.048;24.650;2023-06-26T06:34:28;96887.78;;;24.62;72.99
16461;BME280;8341;42.048;24.650;2023-06-26T06:36:55;96886.13;;;24.76;72.53
16461;BME280;8341;42.048;24.650;2023-06-26T06:39:22;96894.09;;;24.63;72.77
16461;BME280;8341;42.048;24.650;2023-06-26T06:41:48;96892.63;;;24.79;73.52
16461;BME280;8341;42.048;24.650;2023-06-26T06:44:15;96886.84;;;24.94;73.48
16461;BME280;8341;42.048;24.650;2023-06-26T06:46:42;96889.50;;;24.75;72.80
16461;BME280;8341;42.048;24.650;2023-06-26T06:49:09;96891.59;;;25.01;72.64
16461;BME280;8341;42.048;24.650;2023-06-26T06:51:37;96888.47;;;24.97;71.56
16461;BME280;8341;42.048;24.650;2023-06-26T06:54:04;96898.88;;;25.14;69.09
16461;BME280;8341;42.048;24.650;2023-06-26T06:56:31;96886.16;;;25.30;69.54
16461;BME280;8341;42.048;24.650;2023-06-26T06:58:57;96901.88;;;25.25;70.21
16461;BME280;8341;42.048;24.650;2023-06-26T07:01:24;96888.81;;;25.28;69.41
16461;BME280;8341;42.048;24.650;2023-06-26T07:03:51;96895.81;;;25.46;68.25
16461;BME280;8341;42.048;24.650;2023-06-26T07:06:18;96895.22;;;25.47;68.78
16461;BME280;8341;42.048;24.650;2023-06-26T07:08:46;96889.03;;;25.76;67.32
16461;BME280;8341;42.048;24.650;2023-06-26T07:11:12;96889.19;;;25.78;67.84
16461;BME280;8341;42.048;24.650;2023-06-26T07:13:39;96898.66;;;26.01;68.23
16461;BME280;8341;42.048;24.650;2023-06-26T07:16:06;96888.78;;;25.91;67.01
16461;BME280;8341;42.048;24.650;2023-06-26T07:18:36;96894.53;;;25.93;66.80
16461;BME280;8341;42.048;24.650;2023-06-26T07:21:03;96891.25;;;25.77;67.31
16461;BME280;8341;42.048;24.650;2023-06-26T07:23:30;96889.03;;;25.76;66.94
16461;BME280;8341;42.048;24.650;2023-06-26T07:25:58;96884.78;;;25.84;67.11
16461;BME280;8341;42.048;24.650;2023-06-26T07:28:25;96883.03;;;25.89;66.79
16461;BME280;8341;42.048;24.650;2023-06-26T07:30:53;96891.06;;;26.21;66.33
16461;BME280;8341;42.048;24.650;2023-06-26T07:33:19;96891.22;;;26.23;66.72
16461;BME280;8341;42.048;24.650;2023-06-26T07:35:46;96888.31;;;25.85;66.35
16461;BME280;8341;42.048;24.650;2023-06-26T07:38:13;96885.69;;;25.96;66.62
16461;BME280;8341;42.048;24.650;2023-06-26T07:40:40;96886.13;;;25.83;65.84
16461;BME280;8341;42.048;24.650;2023-06-26T07:43:08;96883.06;;;25.52;67.49
16461;BME280;8341;42.048;24.650;2023-06-26T07:45:35;96882.31;;;25.25;68.89
16461;BME280;8341;42.048;24.650;2023-06-26T07:48:02;96887.59;;;25.48;67.20
16461;BME280;8341;42.048;24.650;2023-06-26T07:50:28;96888.84;;;25.64;66.46
16461;BME280;8341;42.048;24.650;2023-06-26T07:52:55;96889.34;;;25.80;65.01
16461;BME280;8341;42.048;24.650;2023-06-26T07:55:22;96901.16;;;26.07;65.94
16461;BME280;8341;42.048;24.650;2023-06-26T07:57:49;96900.00;;;26.10;63.84
16461;BME280;8341;42.048;24.650;2023-06-26T08:00:19;96895.84;;;26.01;65.24
16461;BME280;8341;42.048;24.650;2023-06-26T08:02:45;96898.38;;;26.07;64.21
16461;BME280;8341;42.048;24.650;2023-06-26T08:05:13;96895.47;;;26.15;64.07
16461;BME280;8341;42.048;24.650;2023-06-26T08:07:40;96900.06;;;26.29;63.89
16461;BME280;8341;42.048;24.650;2023-06-26T08:10:07;96899.31;;;26.19;62.75
16461;BME280;8341;42.048;24.650;2023-06-26T08:12:34;96901.94;;;26.17;64.10
16461;BME280;8341;42.048;24.650;2023-06-26T08:15:02;96900.38;;;25.87;64.81
16461;BME280;8341;42.048;24.650;2023-06-26T08:17:31;96895.13;;;26.01;64.46
16461;BME280;8341;42.048;24.650;2023-06-26T08:19:58;96900.00;;;26.10;63.49
16461;BME280;8341;42.048;24.650;2023-06-26T08:22:25;96891.00;;;25.92;63.84
16461;BME280;8341;42.048;24.650;2023-06-26T08:24:52;96891.50;;;26.18;63.42
16461;BME280;8341;42.048;24.650;2023-06-26T08:27:18;96886.66;;;26.28;63.07
16461;BME280;8341;42.048;24.650;2023-06-26T08:29:45;96883.84;;;26.18;62.11
16461;BME280;8341;42.048;24.650;2023-06-26T08:32:12;96886.63;;;26.08;63.28
16461;BME280;8341;42.048;24.650;2023-06-26T08:34:40;96881.72;;;25.90;65.28
16461;BME280;8341;42.048;24.650;2023-06-26T08:37:07;96883.78;;;25.99;63.88
16461;BME280;8341;42.048;24.650;2023-06-26T08:39:35;96884.56;;;26.09;63.34
16461;BME280;8341;42.048;24.650;2023-06-26T08:42:02;96879.16;;;26.30;62.06
16461;BME280;8341;42.048;24.650;2023-06-26T08:44:28;96885.78;;;26.73;63.36
16461;BME280;8341;42.048;24.650;2023-06-26T08:46:55;96887.03;;;27.20;61.22
16461;BME280;8341;42.048;24.650;2023-06-26T08:49:30;96889.22;;;27.41;59.86
16461;BME280;8341;42.048;24.650;2023-06-26T08:52:02;96884.47;;;27.53;57.90
16461;BME280;8341;42.048;24.650;2023-06-26T08:54:36;96878.13;;;27.52;54.27
16461;BME280;8341;42.048;24.650;2023-06-26T08:57:04;96877.13;;;27.48;57.20
16461;BME280;8341;42.048;24.650;2023-06-26T08:59:32;96874.88;;;27.06;59.49
16461;BME280;8341;42.048;24.650;2023-06-26T09:02:00;96882.78;;;27.09;58.30
16461;BME280;8341;42.048;24.650;2023-06-26T09:04:28;96876.00;;;27.12;56.41
16461;BME280;8341;42.048;24.650;2023-06-26T09:06:55;96873.22;;;27.22;56.74
16461;BME280;8341;42.048;24.650;2023-06-26T09:09:23;96880.06;;;27.50;55.53
16461;BME280;8341;42.048;24.650;2023-06-26T09:11:50;96878.28;;;27.54;57.47
16461;BME280;8341;42.048;24.650;2023-06-26T09:14:17;96868.38;;;27.63;56.41
16461;BME280;8341;42.048;24.650;2023-06-26T09:16:45;96870.22;;;27.39;56.29
16461;BME280;8341;42.048;24.650;2023-06-26T09:19:12;96877.53;;;27.54;56.81
16461;BME280;8341;42.048;24.650;2023-06-26T09:21:40;96866.63;;;27.48;56.01
16461;BME280;8341;42.048;24.650;2023-06-26T09:24:07;96864.72;;;27.81;55.84
16461;BME280;8341;42.048;24.650;2023-06-26T09:26:37;96861.44;;;28.16;55.71
16461;BME280;8341;42.048;24.650;2023-06-26T09:29:04;96859.28;;;28.26;54.07
16461;BME280;8341;42.048;24.650;2023-06-26T09:31:33;96863.69;;;28.08;54.73
16461;BME280;8341;42.048;24.650;2023-06-26T09:34:02;96857.56;;;28.21;54.76
16461;BME280;8341;42.048;24.650;2023-06-26T09:36:30;96849.25;;;28.44;53.60
16461;BME280;8341;42.048;24.650;2023-06-26T09:38:59;96853.22;;;28.08;55.02
16461;BME280;8341;42.048;24.650;2023-06-26T09:41:26;96861.97;;;27.72;54.81
16461;BME280;8341;42.048;24.650;2023-06-26T09:43:54;96869.06;;;27.23;55.06
16461;BME280;8341;42.048;24.650;2023-06-26T09:46:27;96861.69;;;27.27;55.52
16461;BME280;8341;42.048;24.650;2023-06-26T09:48:58;96854.19;;;27.20;56.09
16461;BME280;8341;42.048;24.650;2023-06-26T09:51:26;96858.19;;;27.17;57.05
16461;BME280;8341;42.048;24.650;2023-06-26T09:53:52;96858.22;;;27.08;58.01
16461;BME280;8341;42.048;24.650;2023-06-26T09:56:19;96865.25;;;27.18;57.74
16461;BME280;8341;42.048;24.650;2023-06-26T09:58:47;96869.06;;;27.23;57.61
16461;BME280;8341;42.048;24.650;2023-06-26T10:01:16;96866.69;;;27.29;57.25
16461;BME280;8341;42.048;24.650;2023-06-26T10:03:43;96868.91;;;27.30;56.07
16461;BME280;8341;42.048;24.650;2023-06-26T10:06:11;96867.72;;;27.33;58.33
16461;BME280;8341;42.048;24.650;2023-06-26T10:08:39;96864.00;;;27.50;55.46
16461;BME280;8341;42.048;24.650;2023-06-26T10:11:08;96857.22;;;27.44;54.88
16461;BME280;8341;42.048;24.650;2023-06-26T10:13:39;96846.97;;;27.27;55.97
16461;BME280;8341;42.048;24.650;2023-06-26T10:16:11;96850.56;;;27.49;55.97
16461;BME280;8341;42.048;24.650;2023-06-26T10:18:40;96838.91;;;27.52;57.45
16461;BME280;8341;42.048;24.650;2023-06-26T10:21:08;96841.31;;;27.37;56.74
16461;BME280;8341;42.048;24.650;2023-06-26T10:23:39;96839.75;;;27.24;55.74
16461;BME280;8341;42.048;24.650;2023-06-26T10:26:07;96841.56;;;27.10;58.24
16461;BME280;8341;42.048;24.650;2023-06-26T10:28:37;96844.69;;;26.95;58.65
16461;BME280;8341;42.048;24.650;2023-06-26T10:31:06;96847.50;;;26.66;62.61
16461;BME280;8341;42.048;24.650;2023-06-26T10:33:35;96850.47;;;26.68;66.61
16461;BME280;8341;42.048;24.650;2023-06-26T10:36:16;96858.53;;;26.73;69.72
16461;BME280;8341;42.048;24.650;2023-06-26T10:38:51;96864.72;;;26.72;64.51
16461;BME280;8341;42.048;24.650;2023-06-26T10:41:22;96852.53;;;26.77;67.23
16461;BME280;8341;42.048;24.650;2023-06-26T10:43:50;96861.50;;;26.76;62.96
16461;BME280;8341;42.048;24.650;2023-06-26T10:46:21;96857.53;;;26.79;67.95
16461;BME280;8341;42.048;24.650;2023-06-26T10:48:57;96855.16;;;26.56;69.33
16461;BME280;8341;42.048;24.650;2023-06-26T10:51:27;96853.56;;;26.24;70.33
16461;BME280;8341;42.048;24.650;2023-06-26T10:53:54;96848.56;;;26.13;71.09
16461;BME280;8341;42.048;24.650;2023-06-26T10:56:40;96843.22;;;25.98;72.94
16461;BME280;8341;42.048;24.650;2023-06-26T10:59:14;96845.13;;;25.95;73.16
16461;BME280;8341;42.048;24.650;2023-06-26T11:01:42;96835.72;;;25.91;74.29
16461;BME280;8341;42.048;24.650;2023-06-26T11:04:09;96825.38;;;25.74;74.64
16461;BME280;8341;42.048;24.650;2023-06-26T11:06:38;96839.34;;;25.74;75.48
16461;BME280;8341;42.048;24.650;2023-06-26T11:09:10;96831.13;;;25.86;75.92
16461;BME280;8341;42.048;24.650;2023-06-26T11:11:59;96834.00;;;26.34;74.31
16461;BME280;8341;42.048;24.650;2023-06-26T11:14:31;96819.22;;;26.71;71.80
16461;BME280;8341;42.048;24.650;2023-06-26T11:16:59;96819.81;;;26.89;70.25
16461;BME280;8341;42.048;24.650;2023-06-26T11:19:28;96821.84;;;26.98;69.35
16461;BME280;8341;42.048;24.650;2023-06-26T11:22:14;96815.81;;;27.32;66.61
16461;BME280;8341;42.048;24.650;2023-06-26T11:24:42;96808.25;;;27.54;66.66
16461;BME280;8341;42.048;24.650;2023-06-26T11:27:10;96808.59;;;27.70;65.77
16461;BME280;8341;42.048;24.650;2023-06-26T11:29:37;96808.66;;;27.81;65.56
16461;BME280;8341;42.048;24.650;2023-06-26T11:32:05;96803.09;;;28.24;64.96
16461;BME280;8341;42.048;24.650;2023-06-26T11:34:33;96797.97;;;28.53;61.27
16461;BME280;8341;42.048;24.650;2023-06-26T11:37:00;96803.06;;;28.78;60.09
16461;BME280;8341;42.048;24.650;2023-06-26T11:39:31;96796.88;;;29.02;57.78
16461;BME280;8341;42.048;24.650;2023-06-26T11:41:59;96796.38;;;29.17;56.55
16461;BME280;8341;42.048;24.650;2023-06-26T11:44:30;96793.13;;;29.33;55.53
16461;BME280;8341;42.048;24.650;2023-06-26T11:46:57;96795.94;;;29.33;54.22
16461;BME280;8341;42.048;24.650;2023-06-26T11:49:24;96809.25;;;29.21;54.07
16461;BME280;8341;42.048;24.650;2023-06-26T11:51:52;96817.88;;;29.01;56.19
16461;BME280;8341;42.048;24.650;2023-06-26T11:54:25;96814.75;;;27.99;56.03
16461;BME280;8341;42.048;24.650;2023-06-26T11:56:55;96814.13;;;27.79;58.97
16461;BME280;8341;42.048;24.650;2023-06-26T11:59:23;96825.72;;;26.84;64.23
16461;BME280;8341;42.048;24.650;2023-06-26T12:01:51;96820.16;;;26.36;69.57
16461;BME280;8341;42.048;24.650;2023-06-26T12:04:18;96823.97;;;26.31;73.47
16461;BME280;8341;42.048;24.650;2023-06-26T12:06:47;96826.88;;;25.85;71.74
16461;BME280;8341;42.048;24.650;2023-06-26T12:09:17;96832.91;;;25.91;73.58
16461;BME280;8341;42.048;24.650;2023-06-26T12:11:46;96829.94;;;25.89;76.42
16461;BME280;8341;42.048;24.650;2023-06-26T12:14:16;96828.75;;;25.73;77.53
16461;BME280;8341;42.048;24.650;2023-06-26T12:16:44;96834.16;;;25.71;80.92
16461;BME280;8341;42.048;24.650;2023-06-26T12:19:11;96837.31;;;25.94;80.33
16461;BME280;8341;42.048;24.650;2023-06-26T12:21:48;96832.47;;;26.04;80.48
16461;BME280;8341;42.048;24.650;2023-06-26T12:24:19;96838.19;;;25.87;78.31
16461;BME280;8341;42.048;24.650;2023-06-26T12:26:47;96840.09;;;25.94;78.61
16461;BME280;8341;42.048;24.650;2023-06-26T12:29:18;96842.78;;;26.11;80.44
16461;BME280;8341;42.048;24.650;2023-06-26T12:31:46;96840.91;;;26.52;79.95
16461;BME280;8341;42.048;24.650;2023-06-26T12:34:17;96833.22;;;26.71;77.70
16461;BME280;8341;42.048;24.650;2023-06-26T12:36:46;96841.91;;;26.66;76.77
16461;BME280;8341;42.048;24.650;2023-06-26T12:39:16;96835.44;;;26.73;76.74
16461;BME280;8341;42.048;24.650;2023-06-26T12:41:47;96831.16;;;26.91;74.98
16461;BME280;8341;42.048;24.650;2023-06-26T12:44:19;96836.91;;;26.93;75.68
16461;BME280;8341;42.048;24.650;2023-06-26T12:46:47;96838.91;;;27.02;72.58
16461;BME280;8341;42.048;24.650;2023-06-26T12:49:15;96839.31;;;27.18;72.17
16461;BME280;8341;42.048;24.650;2023-06-26T12:51:42;96832.09;;;27.24;70.93
16461;BME280;8341;42.048;24.650;2023-06-26T12:54:09;96825.00;;;27.23;71.30
16461;BME280;8341;42.048;24.650;2023-06-26T12:56:36;96826.38;;;27.13;71.42
16461;BME280;8341;42.048;24.650;2023-06-26T12:59:03;96821.97;;;27.10;68.31
16461;BME280;8341;42.048;24.650;2023-06-26T13:01:31;96821.19;;;27.19;70.80
16461;BME280;8341;42.048;24.650;2023-06-26T13:03:58;96816.41;;;27.41;70.15